sensor_id;sensor_type;location;lat;lon;timestamp;temperature;humidity
47576;DHT22;33304;52.456;13.328;2022-12-18T00:01:15;-5.10;99.90
47576;DHT22;33304;52.456;13.328;2022-12-18T00:03:43;-5.10;99.90
47576;DHT22;33304;52.456;13.328;2022-12-18T00:06:11;-5.20;99.90
47576;DHT22;33304;52.456;13.328;2022-12-18T00:08:39;-5.20;99.90
47576;DHT22;33304;52.456;13.328;2022-12-18T00:11:07;-5.20;99.90
47576;DHT22;33304;52.456;13.328;2022-12-18T00:13:35;-5.20;99.90
47576;DHT22;33304;52.456;13.328;2022-12-18T00:16:04;-5.20;99.90
47576;DHT22;33304;52.456;13.328;2022-12-18T00:18:32;-5.10;99.90
47576;DHT22;33304;52.456;13.328;2022-12-18T00:21:02;-4.90;99.90
47576;DHT22;33304;52.456;13.328;2022-12-18T00:23:30;-4.90;99.90
47576;DHT22;33304;52.456;13.328;2022-12-18T00:25:59;-5.40;99.90
47576;DHT22;33304;52.456;13.328;2022-12-18T00:28:26;-5.50;99.90
47576;DHT22;33304;52.456;13.328;2022-12-18T00:31:00;-5.40;99.90
47576;DHT22;33304;52.456;13.328;2022-12-18T00:33:27;-5.20;99.90
47576;DHT22;33304;52.456;13.328;2022-12-18T00:35:54;-5.20;99.90
47576;DHT22;33304;52.456;13.328;2022-12-18T00:38:23;-5.20;99.90
47576;DHT22;33304;52.456;13.328;2022-12-18T00:40:50;-5.60;99.90
47576;DHT22;33304;52.456;13.328;2022-12-18T00:43:17;-5.60;99.90
47576;DHT22;33304;52.456;13.328;2022-12-18T00:45:43;-5.70;99.90
47576;DHT22;33304;52.456;13.328;2022-12-18T00:48:10;-5.90;99.90
47576;DHT22;33304;52.456;13.328;2022-12-18T00:50:37;-5.70;99.90
47576;DHT22;33304;52.456;13.328;2022-12-18T00:53:05;-5.60;99.90
47576;DHT22;33304;52.456;13.328;2022-12-18T00:55:37;-5.60;99.90
47576;DHT22;33304;52.456;13.328;2022-12-18T00:58:04;-5.50;99.90
47576;DHT22;33304;52.456;13.328;2022-12-18T01:00:31;-5.60;99.90
47576;DHT22;33304;52.456;13.328;2022-12-18T01:02:58;-5.60;99.90
47576;DHT22;33304;52.456;13.328;2022-12-18T01:05:26;-5.50;99.90
47576;DHT22;33304;52.456;13.328;2022-12-18T01:07:53;-5.50;99.90
47576;DHT22;33304;52.456;13.328;2022-12-18T01:10:20;-5.50;99.90
47576;DHT22;33304;52.456;13.328;2022-12-18T01:12:49;-5.40;99.90
47576;DHT22;33304;52.456;13.328;2022-12-18T01:15:18;-5.30;99.90
47576;DHT22;33304;52.456;13.328;2022-12-18T01:17:45;-5.30;99.90
47576;DHT22;33304;52.456;13.328;2022-12-18T01:20:12;-5.40;99.90
47576;DHT22;33304;52.456;13.328;2022-12-18T01:22:39;-5.40;99.90
47576;DHT22;33304;52.456;13.328;2022-12-18T01:25:08;-5.60;99.90
47576;DHT22;33304;52.456;13.328;2022-12-18T01:27:35;-5.60;99.90
47576;DHT22;33304;52.456;13.328;2022-12-18T01:30:06;-5.60;99.90
47576;DHT22;33304;52.456;13.328;2022-12-18T01:32:33;-5.70;99.90
47576;DHT22;33304;52.456;13.328;2022-12-18T01:35:02;-5.40;99.90
47576;DHT22;33304;52.456;13.328;2022-12-18T01:37:29;-5.50;99.90
47576;DHT22;33304;52.456;13.328;2022-12-18T01:39:56;-5.50;99.90
47576;DHT22;33304;52.456;13.328;2022-12-18T01:42:23;-5.60;99.90
47576;DHT22;33304;52.456;13.328;2022-12-18T01:45:04;-5.40;99.90
47576;DHT22;33304;52.456;13.328;2022-12-18T01:47:35;-5.30;99.90
47576;DHT22;33304;52.456;13.328;2022-12-18T01:50:07;-5.20;99.90
47576;DHT22;33304;52.456;13.328;2022-12-18T01:52:35;-5.10;99.90
47576;DHT22;33304;52.456;13.328;2022-12-18T01:55:04;-5.20;99.90
47576;DHT22;33304;52.456;13.328;2022-12-18T01:57:34;-5.20;99.90
47576;DHT22;33304;52.456;13.328;2022-12-18T02:00:07;-5.50;99.90
47576;DHT22;33304;52.456;13.328;2022-12-18T02:02:45;-5.60;99.90
47576;DHT22;33304;52.456;13.328;2022-12-18T02:05:16;-5.50;99.90
47576;DHT22;33304;52.456;13.328;2022-12-18T02:07:55;-5.60;99.90
47576;DHT22;33304;52.456;13.328;2022-12-18T02:10:30;-5.70;99.90
47576;DHT22;33304;52.456;13.328;2022-12-18T02:13:05;-5.70;99.90
47576;DHT22;33304;52.456;13.328;2022-12-18T02:15:40;-5.50;99.90
47576;DHT22;33304;52.456;13.328;2022-12-18T02:18:11;-5.40;99.90
47576;DHT22;33304;52.456;13.328;2022-12-18T02:20:43;-5.50;99.90
47576;DHT22;33304;52.456;13.328;2022-12-18T02:23:19;-5.60;99.90
47576;DHT22;33304;52.456;13.328;2022-12-18T02:26:04;-5.60;99.90
47576;DHT22;33304;52.456;13.328;2022-12-18T02:28:36;-5.70;99.90
47576;DHT22;33304;52.456;13.328;2022-12-18T02:31:08;-5.70;99.90
47576;DHT22;33304;52.456;13.328;2022-12-18T02:33:38;-5.70;99.90
47576;DHT22;33304;52.456;13.328;2022-12-18T02:36:06;-5.80;99.90
47576;DHT22;33304;52.456;13.328;2022-12-18T02:38:35;-5.90;99.90
47576;DHT22;33304;52.456;13.328;2022-12-18T02:41:11;-5.90;99.90
47576;DHT22;33304;52.456;13.328;2022-12-18T02:43:40;-5.80;99.90
47576;DHT22;33304;52.456;13.328;2022-12-18T02:46:26;-5.40;99.90
47576;DHT22;33304;52.456;13.328;2022-12-18T02:49:01;-5.50;99.90
47576;DHT22;33304;52.456;13.328;2022-12-18T02:51:39;-5.60;99.90
47576;DHT22;33304;52.456;13.328;2022-12-18T02:54:13;-5.70;99.90
47576;DHT22;33304;52.456;13.328;2022-12-18T02:56:47;-5.80;99.90
47576;DHT22;33304;52.456;13.328;2022-12-18T02:59:23;-5.70;99.90
47576;DHT22;33304;52.456;13.328;2022-12-18T03:01:57;-5.60;99.90
47576;DHT22;33304;52.456;13.328;2022-12-18T03:04:28;-5.70;99.90
47576;DHT22;33304;52.456;13.328;2022-12-18T03:06:59;-5.80;99.90
47576;DHT22;33304;52.456;13.328;2022-12-18T03:09:33;-5.70;99.90
47576;DHT22;33304;52.456;13.328;2022-12-18T03:12:09;-5.90;99.90
47576;DHT22;33304;52.456;13.328;2022-12-18T03:14:50;-5.70;99.90
47576;DHT22;33304;52.456;13.328;2022-12-18T03:17:22;-5.90;99.90
47576;DHT22;33304;52.456;13.328;2022-12-18T03:19:52;-5.90;99.90
47576;DHT22;33304;52.456;13.328;2022-12-18T03:22:21;-5.80;99.90
47576;DHT22;33304;52.456;13.328;2022-12-18T03:24:53;-5.90;99.90
47576;DHT22;33304;52.456;13.328;2022-12-18T03:27:24;-6.00;99.90
47576;DHT22;33304;52.456;13.328;2022-12-18T03:30:00;-5.90;99.90
47576;DHT22;33304;52.456;13.328;2022-12-18T03:32:37;-5.90;99.90
47576;DHT22;33304;52.456;13.328;2022-12-18T03:35:08;-5.90;99.90
47576;DHT22;33304;52.456;13.328;2022-12-18T03:37:37;-5.90;99.90
47576;DHT22;33304;52.456;13.328;2022-12-18T03:40:05;-5.70;99.90
47576;DHT22;33304;52.456;13.328;2022-12-18T03:42:41;-5.80;99.90
47576;DHT22;33304;52.456;13.328;2022-12-18T03:45:13;-5.80;99.90
47576;DHT22;33304;52.456;13.328;2022-12-18T03:47:58;-5.80;99.90
47576;DHT22;33304;52.456;13.328;2022-12-18T03:50:35;-5.80;99.90
47576;DHT22;33304;52.456;13.328;2022-12-18T03:53:17;-5.90;99.90
47576;DHT22;33304;52.456;13.328;2022-12-18T03:55:50;-5.80;99.90
47576;DHT22;33304;52.456;13.328;2022-12-18T03:58:22;-5.90;99.90
47576;DHT22;33304;52.456;13.328;2022-12-18T04:01:03;-5.90;99.90
47576;DHT22;33304;52.456;13.328;2022-12-18T04:03:32;-6.00;99.90
47576;DHT22;33304;52.456;13.328;2022-12-18T04:06:02;-5.90;99.90
47576;DHT22;33304;52.456;13.328;2022-12-18T04:08:32;-5.80;99.90
47576;DHT22;33304;52.456;13.328;2022-12-18T04:11:05;-5.80;99.90
47576;DHT22;33304;52.456;13.328;2022-12-18T04:13:36;-6.00;99.90
47576;DHT22;33304;52.456;13.328;2022-12-18T04:16:07;-5.80;99.90
47576;DHT22;33304;52.456;13.328;2022-12-18T04:18:38;-5.70;99.90
47576;DHT22;33304;52.456;13.328;2022-12-18T04:21:05;-5.70;99.90
47576;DHT22;33304;52.456;13.328;2022-12-18T04:23:33;-5.90;99.90
47576;DHT22;33304;52.456;13.328;2022-12-18T04:26:01;-6.00;99.90
47576;DHT22;33304;52.456;13.328;2022-12-18T04:28:44;-6.10;99.90
47576;DHT22;33304;52.456;13.328;2022-12-18T04:31:12;-6.00;99.90
47576;DHT22;33304;52.456;13.328;2022-12-18T04:33:39;-6.00;99.90
47576;DHT22;33304;52.456;13.328;2022-12-18T04:36:07;-6.00;99.90
47576;DHT22;33304;52.456;13.328;2022-12-18T04:38:34;-5.90;99.90
47576;DHT22;33304;52.456;13.328;2022-12-18T04:41:07;-6.10;99.90
47576;DHT22;33304;52.456;13.328;2022-12-18T04:43:34;-6.00;99.90
47576;DHT22;33304;52.456;13.328;2022-12-18T04:46:03;-5.70;99.90
47576;DHT22;33304;52.456;13.328;2022-12-18T04:48:30;-5.50;99.90
47576;DHT22;33304;52.456;13.328;2022-12-18T04:50:57;-5.70;99.90
47576;DHT22;33304;52.456;13.328;2022-12-18T04:53:24;-5.90;99.90
47576;DHT22;33304;52.456;13.328;2022-12-18T04:56:02;-5.90;99.90
47576;DHT22;33304;52.456;13.328;2022-12-18T04:58:29;-5.80;99.90
47576;DHT22;33304;52.456;13.328;2022-12-18T05:00:56;-5.70;99.90
47576;DHT22;33304;52.456;13.328;2022-12-18T05:03:25;-5.80;99.90
47576;DHT22;33304;52.456;13.328;2022-12-18T05:05:52;-6.00;99.90
47576;DHT22;33304;52.456;13.328;2022-12-18T05:08:19;-6.10;99.90
47576;DHT22;33304;52.456;13.328;2022-12-18T05:10:46;-6.00;99.90
47576;DHT22;33304;52.456;13.328;2022-12-18T05:13:13;-5.90;99.90
47576;DHT22;33304;52.456;13.328;2022-12-18T05:15:40;-5.80;99.90
47576;DHT22;33304;52.456;13.328;2022-12-18T05:18:08;-6.00;99.90
47576;DHT22;33304;52.456;13.328;2022-12-18T05:20:36;-6.00;99.90
47576;DHT22;33304;52.456;13.328;2022-12-18T05:23:03;-6.00;99.90
47576;DHT22;33304;52.456;13.328;2022-12-18T05:25:30;-6.00;99.90
47576;DHT22;33304;52.456;13.328;2022-12-18T05:27:58;-5.80;99.90
47576;DHT22;33304;52.456;13.328;2022-12-18T05:30:25;-5.70;99.90
47576;DHT22;33304;52.456;13.328;2022-12-18T05:32:52;-5.80;99.90
47576;DHT22;33304;52.456;13.328;2022-12-18T05:35:19;-5.90;99.90
47576;DHT22;33304;52.456;13.328;2022-12-18T05:37:47;-6.00;99.90
47576;DHT22;33304;52.456;13.328;2022-12-18T05:40:14;-6.20;99.90
47576;DHT22;33304;52.456;13.328;2022-12-18T05:42:41;-6.10;99.90
47576;DHT22;33304;52.456;13.328;2022-12-18T05:45:09;-6.20;99.90
47576;DHT22;33304;52.456;13.328;2022-12-18T05:47:36;-6.20;99.90
47576;DHT22;33304;52.456;13.328;2022-12-18T05:50:04;-6.00;99.90
47576;DHT22;33304;52.456;13.328;2022-12-18T05:52:32;-5.90;99.90
47576;DHT22;33304;52.456;13.328;2022-12-18T05:55:01;-5.90;99.90
47576;DHT22;33304;52.456;13.328;2022-12-18T05:57:28;-5.90;99.90
47576;DHT22;33304;52.456;13.328;2022-12-18T05:59:55;-6.00;99.90
47576;DHT22;33304;52.456;13.328;2022-12-18T06:02:22;-5.90;99.90
47576;DHT22;33304;52.456;13.328;2022-12-18T06:04:49;-6.00;99.90
47576;DHT22;33304;52.456;13.328;2022-12-18T06:07:17;-6.00;99.90
47576;DHT22;33304;52.456;13.328;2022-12-18T06:09:44;-6.00;99.90
47576;DHT22;33304;52.456;13.328;2022-12-18T06:12:13;-5.90;99.90
47576;DHT22;33304;52.456;13.328;2022-12-18T06:14:40;-6.00;99.90
47576;DHT22;33304;52.456;13.328;2022-12-18T06:17:07;-6.00;99.90
47576;DHT22;33304;52.456;13.328;2022-12-18T06:19:34;-6.10;99.90
47576;DHT22;33304;52.456;13.328;2022-12-18T06:22:01;-6.10;99.90
47576;DHT22;33304;52.456;13.328;2022-12-18T06:24:28;-5.90;99.90
47576;DHT22;33304;52.456;13.328;2022-12-18T06:26:56;-5.90;99.90
47576;DHT22;33304;52.456;13.328;2022-12-18T06:29:24;-5.80;99.90
47576;DHT22;33304;52.456;13.328;2022-12-18T06:31:51;-5.70;99.90
47576;DHT22;33304;52.456;13.328;2022-12-18T06:34:18;-5.70;99.90
47576;DHT22;33304;52.456;13.328;2022-12-18T06:36:45;-5.80;99.90
47576;DHT22;33304;52.456;13.328;2022-12-18T06:39:12;-5.80;99.90
47576;DHT22;33304;52.456;13.328;2022-12-18T06:41:39;-5.80;99.90
47576;DHT22;33304;52.456;13.328;2022-12-18T06:44:07;-5.70;99.90
47576;DHT22;33304;52.456;13.328;2022-12-18T06:46:35;-5.70;99.90
47576;DHT22;33304;52.456;13.328;2022-12-18T06:49:03;-5.60;99.90
47576;DHT22;33304;52.456;13.328;2022-12-18T06:51:30;-5.60;99.90
47576;DHT22;33304;52.456;13.328;2022-12-18T06:53:57;-5.90;99.90
47576;DHT22;33304;52.456;13.328;2022-12-18T06:56:25;-5.90;99.90
47576;DHT22;33304;52.456;13.328;2022-12-18T06:58:52;-5.90;99.90
47576;DHT22;33304;52.456;13.328;2022-12-18T07:01:19;-5.80;99.90
47576;DHT22;33304;52.456;13.328;2022-12-18T07:03:51;-5.60;99.90
47576;DHT22;33304;52.456;13.328;2022-12-18T07:06:21;-5.60;99.90
47576;DHT22;33304;52.456;13.328;2022-12-18T07:08:49;-5.50;99.90
47576;DHT22;33304;52.456;13.328;2022-12-18T07:11:17;-5.60;99.90
47576;DHT22;33304;52.456;13.328;2022-12-18T07:13:45;-5.60;99.90
47576;DHT22;33304;52.456;13.328;2022-12-18T07:16:14;-5.60;99.90
47576;DHT22;33304;52.456;13.328;2022-12-18T07:18:41;-5.60;99.90
47576;DHT22;33304;52.456;13.328;2022-12-18T07:21:11;-5.60;99.90
47576;DHT22;33304;52.456;13.328;2022-12-18T07:23:39;-5.60;99.90
47576;DHT22;33304;52.456;13.328;2022-12-18T07:26:08;-5.60;99.90
47576;DHT22;33304;52.456;13.328;2022-12-18T07:28:36;-5.70;99.90
47576;DHT22;33304;52.456;13.328;2022-12-18T07:31:04;-5.70;99.90
47576;DHT22;33304;52.456;13.328;2022-12-18T07:33:32;-5.70;99.90
47576;DHT22;33304;52.456;13.328;2022-12-18T07:35:59;-5.70;99.90
47576;DHT22;33304;52.456;13.328;2022-12-18T07:38:28;-5.60;99.90
47576;DHT22;33304;52.456;13.328;2022-12-18T07:41:00;-5.60;99.90
47576;DHT22;33304;52.456;13.328;2022-12-18T07:43:27;-5.50;99.90
47576;DHT22;33304;52.456;13.328;2022-12-18T07:45:54;-5.60;99.90
47576;DHT22;33304;52.456;13.328;2022-12-18T07:48:21;-5.50;99.90
47576;DHT22;33304;52.456;13.328;2022-12-18T07:50:48;-5.60;99.90
47576;DHT22;33304;52.456;13.328;2022-12-18T07:53:15;-5.50;99.90
47576;DHT22;33304;52.456;13.328;2022-12-18T07:55:44;-5.50;99.90
47576;DHT22;33304;52.456;13.328;2022-12-18T07:58:11;-5.50;99.90
47576;DHT22;33304;52.456;13.328;2022-12-18T08:00:38;-5.60;99.90
47576;DHT22;33304;52.456;13.328;2022-12-18T08:03:05;-5.50;99.90
47576;DHT22;33304;52.456;13.328;2022-12-18T08:05:32;-5.20;99.90
47576;DHT22;33304;52.456;13.328;2022-12-18T08:07:59;-5.20;99.90
47576;DHT22;33304;52.456;13.328;2022-12-18T08:10:26;-5.40;99.90
47576;DHT22;33304;52.456;13.328;2022-12-18T08:12:55;-5.40;99.90
47576;DHT22;33304;52.456;13.328;2022-12-18T08:15:22;-5.40;99.90
47576;DHT22;33304;52.456;13.328;2022-12-18T08:17:50;-5.40;99.90
47576;DHT22;33304;52.456;13.328;2022-12-18T08:20:17;-5.20;99.90
47576;DHT22;33304;52.456;13.328;2022-12-18T08:22:44;-5.20;99.90
47576;DHT22;33304;52.456;13.328;2022-12-18T08:25:12;-5.30;99.90
47576;DHT22;33304;52.456;13.328;2022-12-18T08:27:39;-5.30;99.90
47576;DHT22;33304;52.456;13.328;2022-12-18T08:30:09;-5.10;99.90
47576;DHT22;33304;52.456;13.328;2022-12-18T08:32:36;-5.20;99.90
47576;DHT22;33304;52.456;13.328;2022-12-18T08:35:04;-5.10;99.90
47576;DHT22;33304;52.456;13.328;2022-12-18T08:37:31;-5.10;99.90
47576;DHT22;33304;52.456;13.328;2022-12-18T08:39:59;-5.00;99.90
47576;DHT22;33304;52.456;13.328;2022-12-18T08:42:26;-5.00;99.90
47576;DHT22;33304;52.456;13.328;2022-12-18T08:45:13;-5.00;99.90
47576;DHT22;33304;52.456;13.328;2022-12-18T08:47:40;-5.00;99.90
47576;DHT22;33304;52.456;13.328;2022-12-18T08:50:08;-5.00;99.90
47576;DHT22;33304;52.456;13.328;2022-12-18T08:52:37;-5.10;99.90
47576;DHT22;33304;52.456;13.328;2022-12-18T08:55:05;-5.10;99.90
47576;DHT22;33304;52.456;13.328;2022-12-18T08:57:32;-4.90;99.90
47576;DHT22;33304;52.456;13.328;2022-12-18T08:59:59;-5.00;99.90
47576;DHT22;33304;52.456;13.328;2022-12-18T09:02:28;-4.90;99.90
47576;DHT22;33304;52.456;13.328;2022-12-18T09:04:55;-4.90;99.90
47576;DHT22;33304;52.456;13.328;2022-12-18T09:07:22;-5.10;99.90
47576;DHT22;33304;52.456;13.328;2022-12-18T09:09:49;-5.00;99.90
47576;DHT22;33304;52.456;13.328;2022-12-18T09:12:16;-5.00;99.90
47576;DHT22;33304;52.456;13.328;2022-12-18T09:14:43;-4.90;99.90
47576;DHT22;33304;52.456;13.328;2022-12-18T09:17:10;-5.00;99.90
47576;DHT22;33304;52.456;13.328;2022-12-18T09:19:39;-5.00;99.90
47576;DHT22;33304;52.456;13.328;2022-12-18T09:22:06;-5.00;99.90
47576;DHT22;33304;52.456;13.328;2022-12-18T09:24:33;-4.90;99.90
47576;DHT22;33304;52.456;13.328;2022-12-18T09:27:00;-4.90;99.90
47576;DHT22;33304;52.456;13.328;2022-12-18T09:29:27;-5.00;99.90
47576;DHT22;33304;52.456;13.328;2022-12-18T09:31:54;-5.00;99.90
47576;DHT22;33304;52.456;13.328;2022-12-18T09:34:22;-5.00;99.90
47576;DHT22;33304;52.456;13.328;2022-12-18T09:36:51;-4.90;99.90
47576;DHT22;33304;52.456;13.328;2022-12-18T09:39:18;-4.80;99.90
47576;DHT22;33304;52.456;13.328;2022-12-18T09:41:47;-4.80;99.90
47576;DHT22;33304;52.456;13.328;2022-12-18T09:44:24;-4.80;99.90
47576;DHT22;33304;52.456;13.328;2022-12-18T09:47:02;-4.90;99.90
47576;DHT22;33304;52.456;13.328;2022-12-18T09:49:32;-4.80;99.90
47576;DHT22;33304;52.456;13.328;2022-12-18T09:52:08;-4.90;99.90
47576;DHT22;33304;52.456;13.328;2022-12-18T09:54:38;-4.90;99.90
47576;DHT22;33304;52.456;13.328;2022-12-18T09:57:09;-4.90;99.90
47576;DHT22;33304;52.456;13.328;2022-12-18T09:59:38;-4.90;99.90
47576;DHT22;33304;52.456;13.328;2022-12-18T10:02:14;-4.80;99.90
47576;DHT22;33304;52.456;13.328;2022-12-18T10:04:42;-4.80;99.90
47576;DHT22;33304;52.456;13.328;2022-12-18T10:07:15;-4.70;99.90
47576;DHT22;33304;52.456;13.328;2022-12-18T10:09:49;-4.80;99.90
47576;DHT22;33304;52.456;13.328;2022-12-18T10:12:23;-4.70;99.90
47576;DHT22;33304;52.456;13.328;2022-12-18T10:14:58;-4.70;99.90
47576;DHT22;33304;52.456;13.328;2022-12-18T10:17:31;-4.60;99.90
47576;DHT22;33304;52.456;13.328;2022-12-18T10:20:02;-4.60;99.90
47576;DHT22;33304;52.456;13.328;2022-12-18T10:22:43;-4.60;99.90
47576;DHT22;33304;52.456;13.328;2022-12-18T10:25:19;-4.60;99.90
47576;DHT22;33304;52.456;13.328;2022-12-18T10:27:52;-4.50;99.90
47576;DHT22;33304;52.456;13.328;2022-12-18T10:30:22;-4.50;99.90
47576;DHT22;33304;52.456;13.328;2022-12-18T10:32:49;-4.40;99.90
47576;DHT22;33304;52.456;13.328;2022-12-18T10:35:19;-4.30;99.90
47576;DHT22;33304;52.456;13.328;2022-12-18T10:38:02;-4.20;99.90
47576;DHT22;33304;52.456;13.328;2022-12-18T10:40:30;-4.10;99.90
47576;DHT22;33304;52.456;13.328;2022-12-18T10:43:05;-4.00;99.90
47576;DHT22;33304;52.456;13.328;2022-12-18T10:45:33;-3.90;99.90
47576;DHT22;33304;52.456;13.328;2022-12-18T10:48:00;-4.20;99.90
47576;DHT22;33304;52.456;13.328;2022-12-18T10:50:30;-4.10;99.90
47576;DHT22;33304;52.456;13.328;2022-12-18T10:53:01;-4.20;99.90
47576;DHT22;33304;52.456;13.328;2022-12-18T10:55:32;-4.20;99.90
47576;DHT22;33304;52.456;13.328;2022-12-18T10:58:20;-4.10;99.90
47576;DHT22;33304;52.456;13.328;2022-12-18T11:01:03;-4.10;99.90
47576;DHT22;33304;52.456;13.328;2022-12-18T11:03:33;-4.10;99.90
47576;DHT22;33304;52.456;13.328;2022-12-18T11:06:03;-4.00;99.90
47576;DHT22;33304;52.456;13.328;2022-12-18T11:08:32;-3.90;99.90
47576;DHT22;33304;52.456;13.328;2022-12-18T11:11:00;-3.80;99.90
47576;DHT22;33304;52.456;13.328;2022-12-18T11:13:29;-3.70;99.90
47576;DHT22;33304;52.456;13.328;2022-12-18T11:15:57;-3.60;99.90
47576;DHT22;33304;52.456;13.328;2022-12-18T11:18:27;-3.70;99.90
47576;DHT22;33304;52.456;13.328;2022-12-18T11:20:56;-3.70;99.90
47576;DHT22;33304;52.456;13.328;2022-12-18T11:23:25;-3.80;99.90
47576;DHT22;33304;52.456;13.328;2022-12-18T11:25:56;-3.80;99.90
47576;DHT22;33304;52.456;13.328;2022-12-18T11:28:36;-3.60;99.90
47576;DHT22;33304;52.456;13.328;2022-12-18T11:31:19;-3.60;99.90
47576;DHT22;33304;52.456;13.328;2022-12-18T11:33:51;-3.50;99.90
47576;DHT22;33304;52.456;13.328;2022-12-18T11:36:20;-3.50;99.90
47576;DHT22;33304;52.456;13.328;2022-12-18T11:38:50;-3.30;99.90
47576;DHT22;33304;52.456;13.328;2022-12-18T11:41:25;-3.30;99.90
47576;DHT22;33304;52.456;13.328;2022-12-18T11:44:17;-3.50;99.90
47576;DHT22;33304;52.456;13.328;2022-12-18T11:46:47;-3.50;99.90
47576;DHT22;33304;52.456;13.328;2022-12-18T11:49:20;-3.60;99.90
47576;DHT22;33304;52.456;13.328;2022-12-18T11:51:54;-3.60;99.90
47576;DHT22;33304;52.456;13.328;2022-12-18T11:54:22;-3.60;99.90
47576;DHT22;33304;52.456;13.328;2022-12-18T11:56:55;-3.50;99.90
47576;DHT22;33304;52.456;13.328;2022-12-18T11:59:32;-3.50;99.90
47576;DHT22;33304;52.456;13.328;2022-12-18T12:02:14;-3.40;99.90
47576;DHT22;33304;52.456;13.328;2022-12-18T12:04:50;-3.60;99.90
47576;DHT22;33304;52.456;13.328;2022-12-18T12:07:31;-3.50;99.90
47576;DHT22;33304;52.456;13.328;2022-12-18T12:10:12;-3.50;99.90
47576;DHT22;33304;52.456;13.328;2022-12-18T12:12:55;-3.50;99.90
47576;DHT22;33304;52.456;13.328;2022-12-18T12:15:34;-3.40;99.90
47576;DHT22;33304;52.456;13.328;2022-12-18T12:18:13;-3.40;99.90
47576;DHT22;33304;52.456;13.328;2022-12-18T12:20:49;-3.40;99.90
47576;DHT22;33304;52.456;13.328;2022-12-18T12:23:23;-3.40;99.90
47576;DHT22;33304;52.456;13.328;2022-12-18T12:25:59;-3.40;99.90
47576;DHT22;33304;52.456;13.328;2022-12-18T12:28:47;-3.30;99.90
47576;DHT22;33304;52.456;13.328;2022-12-18T12:31:26;-3.20;99.90
47576;DHT22;33304;52.456;13.328;2022-12-18T12:33:59;-3.30;99.90
47576;DHT22;33304;52.456;13.328;2022-12-18T12:36:41;-3.20;99.90
47576;DHT22;33304;52.456;13.328;2022-12-18T12:39:16;-3.10;99.90
47576;DHT22;33304;52.456;13.328;2022-12-18T12:41:45;-3.10;99.90
47576;DHT22;33304;52.456;13.328;2022-12-18T12:44:35;-3.20;99.90
47576;DHT22;33304;52.456;13.328;2022-12-18T12:47:12;-3.20;99.90
47576;DHT22;33304;52.456;13.328;2022-12-18T12:49:40;-3.20;99.90
47576;DHT22;33304;52.456;13.328;2022-12-18T12:52:16;-3.20;99.90
47576;DHT22;33304;52.456;13.328;2022-12-18T12:54:45;-3.20;99.90
47576;DHT22;33304;52.456;13.328;2022-12-18T12:57:17;-3.30;99.90
47576;DHT22;33304;52.456;13.328;2022-12-18T12:59:57;-3.40;99.90
47576;DHT22;33304;52.456;13.328;2022-12-18T13:02:32;-3.40;99.90
47576;DHT22;33304;52.456;13.328;2022-12-18T13:05:03;-3.40;99.90
47576;DHT22;33304;52.456;13.328;2022-12-18T13:07:37;-3.40;99.90
47576;DHT22;33304;52.456;13.328;2022-12-18T13:10:23;-3.30;99.90
47576;DHT22;33304;52.456;13.328;2022-12-18T13:12:55;-3.30;99.90
47576;DHT22;33304;52.456;13.328;2022-12-18T13:15:26;-3.30;99.90
47576;DHT22;33304;52.456;13.328;2022-12-18T13:18:10;-3.30;99.90
47576;DHT22;33304;52.456;13.328;2022-12-18T13:20:40;-3.30;99.90
47576;DHT22;33304;52.456;13.328;2022-12-18T13:23:35;-3.20;99.90
47576;DHT22;33304;52.456;13.328;2022-12-18T13:26:28;-3.20;99.90
47576;DHT22;33304;52.456;13.328;2022-12-18T13:28:56;-3.20;99.90
47576;DHT22;33304;52.456;13.328;2022-12-18T13:34:36;-3.30;99.90
47576;DHT22;33304;52.456;13.328;2022-12-18T13:37:42;-3.20;99.90
47576;DHT22;33304;52.456;13.328;2022-12-18T13:43:38;-3.20;99.90
47576;DHT22;33304;52.456;13.328;2022-12-18T13:46:21;-3.30;99.90
47576;DHT22;33304;52.456;13.328;2022-12-18T13:48:52;-3.30;99.90
47576;DHT22;33304;52.456;13.328;2022-12-18T13:51:22;-3.30;99.90
47576;DHT22;33304;52.456;13.328;2022-12-18T13:53:52;-3.40;99.90
47576;DHT22;33304;52.456;13.328;2022-12-18T13:56:23;-3.20;99.90
47576;DHT22;33304;52.456;13.328;2022-12-18T13:59:15;-3.20;99.90
47576;DHT22;33304;52.456;13.328;2022-12-18T14:01:44;-3.30;99.90
47576;DHT22;33304;52.456;13.328;2022-12-18T14:04:16;-3.30;99.90
47576;DHT22;33304;52.456;13.328;2022-12-18T14:06:47;-3.30;99.90
47576;DHT22;33304;52.456;13.328;2022-12-18T14:09:15;-3.30;99.90
47576;DHT22;33304;52.456;13.328;2022-12-18T14:11:46;-3.30;99.90
47576;DHT22;33304;52.456;13.328;2022-12-18T14:14:15;-3.40;99.90
47576;DHT22;33304;52.456;13.328;2022-12-18T14:16:42;-3.50;99.90
47576;DHT22;33304;52.456;13.328;2022-12-18T14:19:13;-3.50;99.90
47576;DHT22;33304;52.456;13.328;2022-12-18T14:21:47;-3.60;99.90
47576;DHT22;33304;52.456;13.328;2022-12-18T14:24:17;-3.60;99.90
47576;DHT22;33304;52.456;13.328;2022-12-18T14:26:46;-3.50;99.90
47576;DHT22;33304;52.456;13.328;2022-12-18T14:29:22;-3.40;99.90
47576;DHT22;33304;52.456;13.328;2022-12-18T14:32:07;-3.30;99.90
47576;DHT22;33304;52.456;13.328;2022-12-18T14:34:34;-3.30;99.90
47576;DHT22;33304;52.456;13.328;2022-12-18T14:37:02;-3.30;99.90
47576;DHT22;33304;52.456;13.328;2022-12-18T14:39:30;-3.30;99.90
47576;DHT22;33304;52.456;13.328;2022-12-18T14:41:57;-3.50;99.90
47576;DHT22;33304;52.456;13.328;2022-12-18T14:44:24;-3.50;99.90
47576;DHT22;33304;52.456;13.328;2022-12-18T14:46:51;-3.60;99.90
47576;DHT22;33304;52.456;13.328;2022-12-18T14:49:23;-3.60;99.90
47576;DHT22;33304;52.456;13.328;2022-12-18T14:51:53;-3.60;99.90
47576;DHT22;33304;52.456;13.328;2022-12-18T14:54:23;-3.60;99.90
47576;DHT22;33304;52.456;13.328;2022-12-18T14:56:53;-3.50;99.90
47576;DHT22;33304;52.456;13.328;2022-12-18T14:59:24;-3.50;99.90
47576;DHT22;33304;52.456;13.328;2022-12-18T15:01:58;-3.50;99.90
47576;DHT22;33304;52.456;13.328;2022-12-18T15:04:28;-3.40;99.90
47576;DHT22;33304;52.456;13.328;2022-12-18T15:07:09;-3.50;99.90
47576;DHT22;33304;52.456;13.328;2022-12-18T15:09:39;-3.50;99.90
47576;DHT22;33304;52.456;13.328;2022-12-18T15:12:22;-3.60;99.90
47576;DHT22;33304;52.456;13.328;2022-12-18T15:14:51;-3.70;99.90
47576;DHT22;33304;52.456;13.328;2022-12-18T15:17:20;-3.60;99.90
47576;DHT22;33304;52.456;13.328;2022-12-18T15:19:49;-3.70;99.90
47576;DHT22;33304;52.456;13.328;2022-12-18T15:22:26;-3.80;99.90
47576;DHT22;33304;52.456;13.328;2022-12-18T15:24:55;-3.90;99.90
47576;DHT22;33304;52.456;13.328;2022-12-18T15:27:26;-3.90;99.90
47576;DHT22;33304;52.456;13.328;2022-12-18T15:30:00;-4.00;99.90
47576;DHT22;33304;52.456;13.328;2022-12-18T15:32:27;-4.10;99.90
47576;DHT22;33304;52.456;13.328;2022-12-18T15:35:03;-3.90;99.90
47576;DHT22;33304;52.456;13.328;2022-12-18T15:37:30;-3.80;99.90
47576;DHT22;33304;52.456;13.328;2022-12-18T15:39:58;-3.90;99.90
47576;DHT22;33304;52.456;13.328;2022-12-18T15:42:26;-3.70;99.90
47576;DHT22;33304;52.456;13.328;2022-12-18T15:45:10;-3.60;99.90